Time;durP1;ratioP1;P1;durP2;ratioP2;P2;SDS_P1;SDS_P2;PMS_P1;PMS_P2;Temp;Humidity;BMP_temperature;BMP_pressure;BME280_temperature;BME280_humidity;BME280_pressure;Samples;Min_cycle;Max_cycle;Signal;HPM_P1;HPM_P2
2022/08/26 00:01:54;;;;;;;5.05;4.55;;;;;;;21.54;68.10;97915.41;5031485;28;20048;-86
2022/08/26 00:04:23;;;;;;;9.60;6.18;;;;;;;21.35;68.52;97904.56;5030328;28;20622;-86
2022/08/26 00:06:55;;;;;;;6.97;6.00;;;;;;;21.31;68.46;97911.50;5030641;28;20045;-86
2022/08/26 00:09:23;;;;;;;;;;;;;;;21.36;67.98;97918.69;5054837;28;20103;-85
2022/08/26 00:11:52;;;;;;;8.32;5.60;;;;;;;21.38;67.92;97916.53;5057766;28;19921;-86
2022/08/26 00:14:20;;;;;;;8.27;6.38;;;;;;;21.32;68.28;97912.28;5037744;28;20773;-86
2022/08/26 00:16:47;;;;;;;8.77;7.00;;;;;;;21.28;67.97;97922.66;5066958;28;20068;-88
2022/08/26 00:19:20;;;;;;;8.02;6.95;;;;;;;21.18;68.82;97911.25;5081123;28;20066;-88
2022/08/26 00:21:48;;;;;;;7.88;7.07;;;;;;;21.16;69.07;97908.84;5070597;28;20080;-86
2022/08/26 00:24:18;;;;;;;8.13;7.28;;;;;;;21.07;69.37;97905.94;5061653;28;20494;-85
2022/08/26 00:26:46;;;;;;;7.60;6.90;;;;;;;21.04;69.88;97903.81;5045390;28;20049;-86
2022/08/26 00:29:13;;;;;;;6.55;5.90;;;;;;;21.02;69.96;97908.63;5052130;28;20381;-85
2022/08/26 00:31:41;;;;;;;8.80;7.82;;;;;;;20.93;70.02;97904.13;5050327;28;20051;-86
2022/08/26 00:34:09;;;;;;;7.22;6.50;;;;;;;20.93;70.09;97907.59;5048236;28;20120;-86
2022/08/26 00:36:38;;;;;;;7.85;6.43;;;;;;;20.87;70.18;97899.88;5034009;28;20057;-87
2022/08/26 00:39:07;;;;;;;9.43;8.52;;;;;;;20.78;70.76;97899.63;5040554;28;20041;-89
2022/08/26 00:41:38;;;;;;;8.40;7.25;;;;;;;20.80;70.57;97908.16;5040101;28;20049;-86
2022/08/26 00:44:07;;;;;;;6.93;6.10;;;;;;;20.79;70.51;97909.22;5049332;28;20041;-85
2022/08/26 00:46:59;;;;;;;5.05;4.55;;;;;;;20.84;70.59;97911.88;5047664;28;20037;-85
2022/08/26 00:49:41;;;;;;;5.20;4.70;;;;;;;20.84;71.13;97907.34;5037790;28;20102;-85
2022/08/26 00:52:15;;;;;;;4.50;4.10;;;;;;;20.89;71.08;97906.53;5036958;28;20041;-86
2022/08/26 00:54:55;;;;;;;4.75;3.72;;;;;;;20.92;70.98;97903.31;5030929;28;20076;-86
2022/08/26 00:57:22;;;;;;;5.75;5.07;;;;;;;20.80;71.28;97905.47;5063015;28;20044;-86
2022/08/26 00:59:57;;;;;;;7.40;5.00;;;;;;;20.73;71.24;97911.09;5061266;28;20048;-86
2022/08/26 01:02:24;;;;;;;6.68;5.78;;;;;;;20.72;71.35;97914.84;5035129;28;20069;-86
2022/08/26 01:04:56;;;;;;;6.75;6.03;;;;;;;20.66;71.26;97907.13;5030177;28;20662;-86
2022/08/26 01:07:29;;;;;;;5.25;4.20;;;;;;;20.74;71.18;97914.56;5047609;28;20048;-85
2022/08/26 01:10:01;;;;;;;4.60;4.13;;;;;;;20.71;71.23;97907.13;5063254;28;20644;-85
2022/08/26 01:12:38;;;;;;;4.57;3.78;;;;;;;20.80;71.98;97916.16;5048676;28;20053;-86
2022/08/26 01:15:08;;;;;;;6.10;4.72;;;;;;;20.70;71.79;97916.19;5049208;28;20083;-86
2022/08/26 01:17:38;;;;;;;6.00;5.38;;;;;;;20.55;72.03;97909.78;5027210;28;20672;-86
2022/08/26 01:20:58;;;;;;;6.93;6.22;;;;;;;20.40;72.70;97920.44;5053131;28;20052;-85
2022/08/26 01:23:38;;;;;;;5.40;4.40;;;;;;;20.43;72.81;97917.22;5029077;28;20054;-85
2022/08/26 01:26:20;;;;;;;4.45;3.83;;;;;;;20.49;72.45;97916.19;5028838;28;20038;-85
2022/08/26 01:28:52;;;;;;;5.65;4.32;;;;;;;20.54;72.10;97918.84;5030080;28;20081;-86
2022/08/26 01:31:25;;;;;;;5.30;3.80;;;;;;;20.61;72.76;97915.13;5045303;28;20052;-85
2022/08/26 01:34:09;;;;;;;3.67;3.25;;;;;;;20.57;72.81;97912.19;5062832;28;20037;-85
2022/08/26 01:36:38;;;;;;;4.40;4.00;;;;;;;20.52;72.58;97915.66;5049018;28;20111;-85
2022/08/26 01:39:06;;;;;;;3.40;3.10;;;;;;;20.54;72.58;97916.19;5041069;28;20120;-85
2022/08/26 01:41:35;;;;;;;3.83;3.20;;;;;;;20.56;72.82;97908.72;5029878;28;20524;-85
2022/08/26 01:44:07;;;;;;;4.25;3.80;;;;;;;20.49;72.50;97908.19;5029720;28;20041;-86
2022/08/26 01:46:36;;;;;;;10.43;6.15;;;;;;;20.23;73.88;97901.28;5046663;28;20048;-86
2022/08/26 01:49:07;;;;;;;4.35;3.75;;;;;;;20.35;73.72;97909.00;5042283;28;20045;-86
2022/08/26 01:51:37;;;;;;;4.45;3.47;;;;;;;20.37;73.33;97901.53;5039359;28;20532;-86
2022/08/26 01:54:07;;;;;;;5.22;3.83;;;;;;;20.39;73.69;97899.38;5054882;28;20122;-86
2022/08/26 01:56:39;;;;;;;4.85;3.65;;;;;;;20.44;73.76;97896.72;5053261;28;20047;-86
2022/08/26 01:59:13;;;;;;;3.80;3.50;;;;;;;20.43;73.69;97898.59;5072821;28;20398;-85
2022/08/26 02:01:40;;;;;;;3.85;3.45;;;;;;;20.45;73.05;97899.16;5050796;28;20488;-86
2022/08/26 02:04:44;;;;;;;4.70;4.18;;;;;;;20.35;73.57;97904.47;5031577;28;20046;-86
2022/08/26 02:07:11;;;;;;;9.10;5.03;;;;;;;20.26;73.34;97901.50;5037900;28;20091;-86
2022/08/26 02:09:41;;;;;;;5.22;4.72;;;;;;;20.27;74.29;97903.13;5061150;28;20140;-86
2022/08/26 02:12:11;;;;;;;3.80;3.42;;;;;;;20.30;73.92;97907.13;5070781;28;20049;-85
2022/08/26 02:14:49;;;;;;;4.30;3.40;;;;;;;20.30;73.65;97896.47;5062100;28;20404;-86
2022/08/26 02:17:24;;;;;;;4.03;3.70;;;;;;;20.30;73.95;97902.59;5064668;28;20049;-86
2022/08/26 02:20:16;;;;;;;3.80;3.40;;;;;;;20.26;73.45;97898.06;5053833;28;20056;-86
2022/08/26 02:22:58;;;;;;;8.23;6.13;;;;;;;19.97;74.37;97892.44;5059529;28;20056;-86
2022/08/26 02:25:41;;;;;;;5.80;4.57;;;;;;;19.98;74.29;97884.22;5070931;28;20060;-86
2022/08/26 02:28:11;;;;;;;4.38;3.95;;;;;;;20.03;74.68;97891.38;5072189;28;20561;-85
2022/08/26 02:30:39;;;;;;;4.57;3.72;;;;;;;20.07;74.44;97894.34;5055051;28;20049;-86
2022/08/26 02:33:06;;;;;;;7.22;5.50;;;;;;;19.74;74.70;97891.91;5044544;28;20041;-86
2022/08/26 02:35:35;;;;;;;6.82;5.65;;;;;;;19.84;75.07;97896.44;5071477;28;20041;-85
2022/08/26 02:38:06;;;;;;;4.97;4.47;;;;;;;19.91;75.13;97904.97;5057414;28;20496;-86
2022/08/26 02:40:40;;;;;;;4.68;3.58;;;;;;;19.92;74.90;97893.28;5058492;28;20489;-86
2022/08/26 02:43:08;;;;;;;5.05;4.55;;;;;;;19.83;74.85;97891.38;5048190;28;20038;-86
2022/08/26 02:45:35;;;;;;;7.25;5.53;;;;;;;19.73;75.13;97894.81;5048240;28;20756;-86
2022/08/26 02:48:11;;;;;;;4.97;4.45;;;;;;;19.76;75.56;97894.31;5056638;28;20041;-85
2022/08/26 02:50:39;;;;;;;4.68;3.95;;;;;;;19.75;75.28;97890.03;5051465;28;20480;-86
2022/08/26 02:53:09;;;;;;;7.25;5.95;;;;;;;19.62;75.50;97898.53;5034543;28;20076;-86
2022/08/26 02:55:35;;;;;;;5.50;4.25;;;;;;;19.71;75.55;97894.28;5049926;28;20073;-85
2022/08/26 02:58:03;;;;;;;4.35;3.95;;;;;;;19.71;75.64;97888.97;5056317;28;20051;-86
2022/08/26 03:00:30;;;;;;;4.35;3.60;;;;;;;19.75;75.23;97884.72;5031504;28;20079;-86
2022/08/26 03:02:58;;;;;;;4.18;3.78;;;;;;;19.80;75.29;97890.06;5031245;28;20051;-85
2022/08/26 03:05:25;;;;;;;6.57;4.45;;;;;;;19.67;75.23;97885.22;5038314;28;20499;-86
2022/08/26 03:07:52;;;;;;;3.83;3.50;;;;;;;19.70;75.89;97892.69;5051946;28;20110;-86
2022/08/26 03:10:20;;;;;;;5.88;3.55;;;;;;;19.77;75.22;97893.22;5057551;28;20120;-86
2022/08/26 03:12:47;;;;;;;4.15;3.70;;;;;;;19.78;74.95;97889.50;5050464;28;20041;-87
2022/08/26 03:15:17;;;;;;;4.72;3.55;;;;;;;19.74;74.67;97889.25;5038496;28;20072;-86
2022/08/26 03:17:47;;;;;;;4.00;3.60;;;;;;;19.75;74.61;97892.72;5047507;28;20049;-87
2022/08/26 03:20:15;;;;;;;4.88;3.33;;;;;;;19.78;75.00;97894.81;5047179;28;20099;-86
2022/08/26 03:22:44;;;;;;;3.17;2.88;;;;;;;19.79;74.99;97880.44;5050696;28;20041;-86
2022/08/26 03:25:15;;;;;;;3.70;3.30;;;;;;;19.73;74.83;97879.69;5068606;28;20044;-86
2022/08/26 03:27:42;;;;;;;4.30;3.88;;;;;;;19.70;74.81;97887.38;5062802;28;20120;-86
2022/08/26 03:32:57;;;;;;;4.05;3.65;;;;;;;19.62;75.41;97879.91;5050981;28;20049;-86
2022/08/26 03:35:25;;;;;;;3.88;3.47;;;;;;;19.61;75.07;97872.97;5051436;28;20048;-86
2022/08/26 03:37:53;;;;;;;3.90;3.60;;;;;;;19.65;74.98;97882.03;5043402;28;20077;-86
2022/08/26 03:40:20;;;;;;;5.13;4.18;;;;;;;19.56;75.09;97871.09;5039818;28;20051;-87
2022/08/26 03:42:49;;;;;;;4.97;4.05;;;;;;;19.53;75.44;97884.91;5060341;28;20076;-86
2022/08/26 03:45:18;;;;;;;4.97;3.70;;;;;;;19.52;75.46;97884.09;5046540;28;20044;-87
2022/08/26 03:47:46;;;;;;;3.80;3.40;;;;;;;19.49;75.40;97881.97;5065509;28;20049;-86
2022/08/26 03:50:20;;;;;;;4.65;3.78;;;;;;;19.44;75.37;97865.22;5049700;28;20044;-86
2022/08/26 03:52:53;;;;;;;4.78;4.00;;;;;;;19.45;75.37;97877.44;5030861;28;20452;-87
2022/08/26 03:55:25;;;;;;;5.10;3.53;;;;;;;19.43;75.51;97871.56;5029054;28;20049;-88
2022/08/26 03:57:53;;;;;;;4.75;3.83;;;;;;;19.43;75.39;97874.22;5063564;28;20412;-86
2022/08/26 04:00:21;;;;;;;5.43;4.35;;;;;;;19.39;75.59;97871.31;5048277;28;20041;-85
2022/08/26 04:02:49;;;;;;;4.03;3.60;;;;;;;19.40;75.75;97875.56;5059678;28;20057;-85
2022/08/26 04:05:20;;;;;;;5.00;3.55;;;;;;;19.40;75.85;97882.75;5029686;28;20132;-87
2022/08/26 04:07:49;;;;;;;4.25;3.33;;;;;;;19.35;76.10;97864.91;5034338;28;20045;-86
2022/08/26 04:10:22;;;;;;;4.40;3.50;;;;;;;19.42;75.85;97875.28;5042062;28;20123;-87
2022/08/26 04:12:56;;;;;;;4.38;3.97;;;;;;;19.42;75.50;97870.78;5037376;28;20940;-86
2022/08/26 04:15:25;;;;;;;6.28;4.28;;;;;;;19.40;76.19;97877.44;5055065;28;20045;-86
2022/08/26 04:17:52;;;;;;;5.18;3.70;;;;;;;19.44;76.07;97876.66;5056655;28;20048;-86
2022/08/26 04:20:21;;;;;;;5.20;4.10;;;;;;;19.43;76.14;97869.75;5040178;28;20052;-86
2022/08/26 04:22:47;;;;;;;4.65;4.00;;;;;;;19.36;75.86;97877.13;5051227;28;20070;-86
2022/08/26 04:25:15;;;;;;;4.90;4.30;;;;;;;19.30;76.03;97872.88;5066536;28;20072;-86
2022/08/26 04:27:42;;;;;;;4.72;4.10;;;;;;;19.35;76.19;97880.84;5068705;28;20040;-86
2022/08/26 04:30:10;;;;;;;4.63;3.53;;;;;;;19.37;76.35;97867.28;5064223;28;20095;-86
2022/08/26 04:32:37;;;;;;;5.30;4.55;;;;;;;19.32;76.46;97870.75;5044303;28;20095;-85
2022/08/26 04:35:05;;;;;;;4.78;3.92;;;;;;;19.25;76.93;97864.88;5049975;28;20542;-87
2022/08/26 04:37:32;;;;;;;4.97;4.10;;;;;;;19.34;77.09;97873.94;5057631;28;20378;-86
2022/08/26 04:39:59;;;;;;;6.05;4.47;;;;;;;19.29;77.10;97876.59;5036198;28;20300;-86
2022/08/26 04:42:28;;;;;;;5.90;5.30;;;;;;;19.22;76.98;97870.72;5041685;28;20041;-86
2022/08/26 04:44:54;;;;;;;5.10;4.18;;;;;;;19.29;77.08;97868.63;5036615;28;20050;-86
2022/08/26 04:47:21;;;;;;;4.65;4.15;;;;;;;19.33;77.25;97867.03;5052013;28;20101;-85
2022/08/26 04:49:48;;;;;;;4.53;3.50;;;;;;;19.38;77.23;97875.03;5070242;28;20457;-86
2022/08/26 04:52:15;;;;;;;4.30;3.78;;;;;;;19.42;76.73;97884.06;5069838;28;20044;-86
2022/08/26 04:54:42;;;;;;;4.97;3.85;;;;;;;19.49;76.49;97884.66;5050982;28;20057;-86
2022/08/26 04:57:09;;;;;;;3.90;3.25;;;;;;;19.49;76.48;97881.97;5045383;28;20069;-86
2022/08/26 04:59:36;;;;;;;3.40;3.10;;;;;;;19.52;76.42;97880.66;5030537;28;20083;-86
2022/08/26 05:02:05;;;;;;;4.65;3.50;;;;;;;19.56;76.25;97892.38;5059953;28;20064;-86
2022/08/26 05:04:33;;;;;;;7.70;4.70;;;;;;;19.39;76.53;97887.25;5031218;28;20050;-86
2022/08/26 05:07:01;;;;;;;5.60;5.03;;;;;;;19.25;77.07;97889.63;5053469;28;20115;-86
2022/08/26 05:09:28;;;;;;;5.68;5.07;;;;;;;19.28;77.18;97887.50;5062381;28;20037;-86
2022/08/26 05:11:56;;;;;;;8.80;6.20;;;;;;;19.15;77.48;97886.91;5055810;28;20049;-86
2022/08/26 05:14:22;;;;;;;10.32;7.55;;;;;;;19.04;78.28;97887.91;5067155;28;20086;-88
2022/08/26 05:16:50;;;;;;;11.20;8.48;;;;;;;18.95;78.24;97892.13;5028443;28;20042;-87
2022/08/26 05:19:26;;;;;;;12.75;9.15;;;;;;;18.85;78.46;97892.09;5028535;28;20045;-88
2022/08/26 05:21:53;;;;;;;11.10;8.50;;;;;;;18.82;78.96;97900.56;5015672;28;20136;-88
2022/08/26 05:24:20;;;;;;;9.77;8.10;;;;;;;18.78;78.93;97897.63;5034139;28;20041;-87
2022/08/26 05:26:47;;;;;;;11.18;8.75;;;;;;;18.73;79.29;97902.13;5053736;28;20040;-88
2022/08/26 05:29:15;;;;;;;10.05;8.45;;;;;;;18.73;79.61;97902.91;5055553;28;20152;-87
2022/08/26 05:31:42;;;;;;;10.02;7.30;;;;;;;18.83;79.53;97897.66;5033606;28;20045;-86
2022/08/26 05:34:09;;;;;;;10.07;7.40;;;;;;;18.85;79.12;97908.81;5035231;28;20386;-86
2022/08/26 05:36:36;;;;;;;8.13;7.28;;;;;;;18.91;78.82;97907.78;5058724;28;20064;-86
2022/08/26 05:39:06;;;;;;;6.38;5.63;;;;;;;19.01;79.00;97906.22;5061654;28;20098;-86
2022/08/26 05:41:39;;;;;;;6.07;5.00;;;;;;;19.17;78.68;97910.56;5057654;28;20076;-86
2022/08/26 05:44:11;;;;;;;6.50;5.78;;;;;;;19.22;77.98;97899.97;5048479;28;20036;-86
2022/08/26 05:46:43;;;;;;;5.18;4.55;;;;;;;19.34;78.47;97907.72;5072480;28;20048;-85
2022/08/26 05:49:13;;;;;;;5.20;4.68;;;;;;;19.48;77.69;97914.94;5072484;28;20652;-86
2022/08/26 05:51:45;;;;;;;5.32;4.55;;;;;;;19.62;76.99;97911.84;5053794;28;20045;-86
2022/08/26 05:54:14;;;;;;;5.25;4.40;;;;;;;19.71;76.94;97911.03;5039289;28;20111;-86
2022/08/26 05:56:51;;;;;;;4.60;3.88;;;;;;;19.85;76.92;97911.34;5040271;28;20511;-85
2022/08/26 05:59:18;;;;;;;5.43;4.43;;;;;;;19.98;76.60;97905.53;5046006;28;20044;-86
2022/08/26 06:01:53;;;;;;;5.32;3.67;;;;;;;20.11;75.82;97898.06;5073366;28;20086;-86
2022/08/26 06:04:21;;;;;;;4.43;4.00;;;;;;;20.29;75.67;97910.84;5088880;28;20044;-86
2022/08/26 06:06:50;;;;;;;6.70;5.17;;;;;;;20.39;74.42;97904.72;5058925;28;20036;-84
2022/08/26 06:09:17;;;;;;;4.63;4.15;;;;;;;20.46;74.65;97900.75;5067815;28;20094;-87
2022/08/26 06:11:44;;;;;;;5.30;4.80;;;;;;;20.64;74.51;97906.59;5064568;28;20057;-86
2022/08/26 06:14:11;;;;;;;6.03;4.82;;;;;;;20.70;73.61;97908.97;5041863;28;20063;-86
2022/08/26 06:16:44;;;;;;;6.03;4.65;;;;;;;20.84;73.44;97906.56;5044312;28;20043;-86
2022/08/26 06:19:14;;;;;;;5.53;4.95;;;;;;;20.96;73.44;97915.03;5087822;28;20071;-86
2022/08/26 06:21:46;;;;;;;5.25;4.80;;;;;;;21.04;72.81;97917.16;5052231;28;20523;-85
2022/08/26 06:27:08;;;;;;;5.78;5.18;;;;;;;21.30;72.58;97930.44;5032452;28;20079;-86
2022/08/26 06:29:37;;;;;;;8.57;5.78;;;;;;;21.35;72.22;97920.56;5030326;28;20410;-86
2022/08/26 06:32:05;;;;;;;8.40;6.97;;;;;;;21.31;72.15;97926.69;5034072;28;20118;-87
2022/08/26 06:34:32;;;;;;;7.53;6.47;;;;;;;21.36;71.92;97930.16;5046827;28;20053;-87
2022/08/26 06:37:04;;;;;;;7.88;6.10;;;;;;;21.48;72.16;97932.50;5035500;28;20566;-86
2022/08/26 06:39:33;;;;;;;7.35;5.47;;;;;;;21.62;72.38;97924.69;5048555;28;20047;-86
2022/08/26 06:42:00;;;;;;;9.23;6.70;;;;;;;21.72;71.78;97923.84;5050360;28;20036;-86
2022/08/26 06:44:28;;;;;;;6.32;5.60;;;;;;;21.88;71.34;97926.13;5055005;28;20446;-86
2022/08/26 06:46:55;;;;;;;8.45;7.65;;;;;;;21.88;69.33;97920.00;5045177;28;20037;-87
2022/08/26 06:49:22;;;;;;;10.18;8.20;;;;;;;21.98;69.14;97921.81;5036981;28;20094;-87
2022/08/26 06:51:56;;;;;;;;;;;;;;;22.21;69.89;97923.81;5055125;28;20476;-86
2022/08/26 06:54:23;;;;;;;9.98;6.97;;;;;;;22.27;69.16;97913.88;5071831;28;19920;-86
2022/08/26 06:56:50;;;;;;;7.15;5.90;;;;;;;22.55;69.19;97918.47;5066321;28;20045;-85
2022/08/26 06:59:17;;;;;;;5.97;5.38;;;;;;;22.77;67.76;97914.50;5055582;28;20072;-88
2022/08/26 07:01:44;;;;;;;7.70;6.28;;;;;;;22.90;66.98;97917.31;5061393;28;20056;-86
2022/08/26 07:04:13;;;;;;;6.32;5.55;;;;;;;23.01;66.70;97911.88;5041792;28;20898;-86
2022/08/26 07:06:47;;;;;;;6.60;5.53;;;;;;;23.11;67.03;97915.22;5043298;28;20107;-85
2022/08/26 07:09:16;;;;;;;8.82;6.03;;;;;;;23.20;65.30;97918.84;5054515;28;20583;-86
2022/08/26 07:11:43;;;;;;;11.05;7.72;;;;;;;23.23;65.15;97923.66;5049119;28;20179;-87
2022/08/26 07:14:11;;;;;;;7.53;6.55;;;;;;;23.47;66.41;97918.25;5048106;28;20057;-86
2022/08/26 07:16:40;;;;;;;8.15;7.35;;;;;;;23.44;65.86;97913.47;5040689;28;20048;-86
2022/08/26 07:19:08;;;;;;;7.43;6.25;;;;;;;23.31;66.41;97918.75;5032761;28;20049;-86
2022/08/26 07:21:40;;;;;;;7.60;5.85;;;;;;;23.18;66.15;97910.31;5029302;28;20132;-86
2022/08/26 07:24:08;;;;;;;7.45;6.50;;;;;;;23.07;67.28;97913.41;5069055;28;20625;-86
2022/08/26 07:26:38;;;;;;;7.18;6.00;;;;;;;23.00;67.98;97902.25;5059008;28;20044;-87
2022/08/26 07:29:11;;;;;;;6.38;5.47;;;;;;;23.05;67.29;97910.22;5037271;28;20045;-86
2022/08/26 07:31:40;;;;;;;9.25;6.88;;;;;;;23.02;67.75;97914.25;5064654;28;20072;-86
2022/08/26 07:34:12;;;;;;;7.20;6.30;;;;;;;23.17;68.71;97910.63;5053384;28;20667;-86
2022/08/26 07:36:40;;;;;;;9.43;7.15;;;;;;;23.41;66.92;97907.91;5050967;28;20499;-87
2022/08/26 07:39:07;;;;;;;8.25;6.70;;;;;;;23.70;65.75;97905.94;5031929;28;20087;-87
2022/08/26 07:41:35;;;;;;;12.50;8.25;;;;;;;23.82;65.64;97910.06;5042431;28;20053;-89
2022/08/26 07:44:02;;;;;;;10.48;7.00;;;;;;;24.09;65.40;97912.88;5059067;28;20546;-87
2022/08/26 07:46:30;;;;;;;10.77;7.20;;;;;;;24.27;63.73;97913.91;5070857;28;20043;-86
2022/08/26 07:48:57;;;;;;;9.82;7.00;;;;;;;24.55;63.87;97915.63;5033684;28;20091;-87
2022/08/26 07:51:25;;;;;;;9.48;6.25;;;;;;;24.75;63.40;97913.66;5049409;28;20515;-86
2022/08/26 07:53:54;;;;;;;11.63;7.43;;;;;;;24.94;60.88;97909.00;5042565;28;20037;-87
2022/08/26 07:56:21;;;;;;;9.77;6.45;;;;;;;25.11;61.67;97916.50;5068869;28;20655;-86
2022/08/26 07:58:52;;;;;;;9.50;6.45;;;;;;;25.30;61.71;97913.72;5032562;28;20041;-86
2022/08/26 08:01:22;;;;;;;;;;;;;;;25.41;60.30;97908.94;5045795;28;20433;-87
2022/08/26 08:03:52;;;;;;;10.60;7.95;;;;;;;25.42;59.74;97910.53;5032226;28;19921;-87
2022/08/26 08:06:22;;;;;;;13.02;7.65;;;;;;;25.58;60.69;97901.84;5045544;28;20103;-87
2022/08/26 08:08:55;;;;;;;12.50;7.47;;;;;;;25.58;60.11;97909.09;5037097;28;20090;-86
2022/08/26 08:11:23;;;;;;;8.05;6.18;;;;;;;25.50;60.55;97901.78;5036530;28;20053;-87
2022/08/26 08:13:50;;;;;;;10.82;7.38;;;;;;;25.43;60.39;97893.31;5054445;28;20040;-87
2022/08/26 08:16:24;;;;;;;13.25;8.60;;;;;;;25.23;62.73;97902.59;5039231;28;20049;-88
2022/08/26 08:18:52;;;;;;;10.90;8.77;;;;;;;25.06;61.57;97898.63;5029785;28;20420;-87
2022/08/26 08:21:19;;;;;;;8.57;7.70;;;;;;;25.09;61.87;97907.97;5028386;28;20386;-87
2022/08/26 08:23:55;;;;;;;;;;;;;;;25.08;62.53;97907.19;5065967;28;20491;-87
2022/08/26 08:26:24;;;;;;;8.32;6.47;;;;;;;25.18;62.37;97905.38;5069373;28;20314;-86
2022/08/26 08:28:56;;;;;;;9.38;6.97;;;;;;;25.25;61.83;97900.41;5078681;28;20045;-85
2022/08/26 08:31:31;;;;;;;8.77;6.50;;;;;;;25.30;62.34;97897.59;5050079;28;20037;-85
2022/08/26 08:34:18;;;;;;;8.23;6.40;;;;;;;25.39;62.79;97901.19;5051548;28;20123;-85
2022/08/26 08:36:47;;;;;;;7.50;6.68;;;;;;;25.45;62.63;97904.56;5054330;28;20507;-84
2022/08/26 08:39:13;;;;;;;8.35;6.60;;;;;;;25.44;61.13;97902.97;5057090;28;20076;-84
2022/08/26 08:41:49;;;;;;;6.80;6.03;;;;;;;25.39;63.50;97906.56;5066863;28;20118;-84
2022/08/26 08:44:24;;;;;;;8.10;6.72;;;;;;;25.28;63.71;97900.59;5063787;28;20045;-84
2022/08/26 08:47:04;;;;;;;8.15;7.05;;;;;;;25.34;62.18;97896.72;5065813;28;20090;-85
2022/08/26 08:49:33;;;;;;;9.43;7.15;;;;;;;25.29;62.18;97902.19;5065544;28;20514;-84
2022/08/26 08:52:30;;;;;;;9.80;7.05;;;;;;;25.45;61.38;97893.81;5053197;28;20069;-84
2022/08/26 08:54:57;;;;;;;11.23;8.00;;;;;;;25.83;60.54;97884.41;5049464;28;20045;-84
2022/08/26 08:57:48;;;;;;;9.43;8.43;;;;;;;26.22;59.11;97882.94;5069827;28;20128;-84
2022/08/26 09:00:22;;;;;;;9.20;7.10;;;;;;;26.49;57.88;97886.59;5042794;28;20045;-85
2022/08/26 09:03:05;;;;;;;9.65;7.60;;;;;;;26.68;56.92;97884.47;5044309;28;20069;-84
2022/08/26 09:05:42;;;;;;;10.77;7.97;;;;;;;26.88;56.38;97880.47;5048023;28;20119;-83
2022/08/26 09:08:23;;;;;;;14.88;9.27;;;;;;;27.00;55.95;97880.66;5043610;28;20083;-83
2022/08/26 09:10:58;;;;;;;12.70;9.02;;;;;;;27.23;56.06;97875.19;5040074;28;20045;-84
2022/08/26 09:13:27;;;;;;;10.60;7.55;;;;;;;27.40;55.64;97876.03;5042115;28;20049;-84
2022/08/26 09:16:22;;;;;;;8.40;7.03;;;;;;;27.42;55.64;97875.72;5070440;28;20079;-84
2022/08/26 09:19:40;;;;;;;6.72;6.13;;;;;;;27.35;55.70;97872.69;5038089;28;20055;-85
2022/08/26 09:22:07;;;;;;;11.80;7.75;;;;;;;27.17;55.50;97871.88;5054436;28;20100;-84
2022/08/26 09:24:38;;;;;;;7.85;6.88;;;;;;;27.12;55.23;97869.34;5052933;28;20123;-84
2022/08/26 09:27:44;;;;;;;8.93;7.18;;;;;;;27.17;56.12;97867.28;5058278;28;20123;-84
2022/08/26 09:30:36;;;;;;;8.23;7.28;;;;;;;27.22;55.78;97863.63;5056844;28;20075;-84
2022/08/26 09:33:08;;;;;;;8.77;6.38;;;;;;;27.43;54.03;97861.94;5057376;28;20040;-84
2022/08/26 09:35:39;;;;;;;11.75;8.10;;;;;;;27.44;54.36;97860.03;5057852;28;20047;-84
2022/08/26 09:38:28;;;;;;;8.18;6.45;;;;;;;27.45;55.47;97859.72;5063015;28;20048;-84
2022/08/26 09:41:17;;;;;;;13.93;7.15;;;;;;;27.35;54.30;97849.28;5044132;28;20045;-84
2022/08/26 09:44:17;;;;;;;7.82;6.53;;;;;;;27.58;55.54;97849.13;5081860;28;20040;-85
2022/08/26 09:47:00;;;;;;;10.40;6.38;;;;;;;27.92;54.67;97842.97;5072112;28;20072;-84
2022/08/26 09:49:36;;;;;;;11.40;7.38;;;;;;;28.07;51.99;97829.00;5081045;28;20094;-85
2022/08/26 09:52:10;;;;;;;9.48;7.03;;;;;;;28.27;51.61;97830.22;5064835;28;20123;-85
2022/08/26 09:54:38;;;;;;;10.18;6.72;;;;;;;28.37;51.45;97821.81;5045529;28;20053;-85
2022/08/26 09:57:23;;;;;;;11.90;7.03;;;;;;;28.52;50.26;97815.88;5055041;28;20526;-85
2022/08/26 09:59:50;;;;;;;11.90;6.78;;;;;;;28.59;50.23;97811.88;5058920;28;20094;-84
2022/08/26 10:02:31;;;;;;;9.45;6.53;;;;;;;28.80;50.04;97807.34;5049266;28;20620;-83
2022/08/26 10:05:05;;;;;;;12.23;6.32;;;;;;;28.85;49.17;97804.47;5037551;28;20045;-84
2022/08/26 10:07:43;;;;;;;11.77;7.18;;;;;;;28.83;49.40;97801.28;5046426;28;20099;-84
2022/08/26 10:10:15;;;;;;;10.68;7.32;;;;;;;28.81;49.41;97787.34;5045392;28;20510;-85
2022/08/26 10:12:56;;;;;;;8.55;6.20;;;;;;;29.02;48.66;97782.78;5062867;28;20049;-84
2022/08/26 10:15:25;;;;;;;;;;;;;;;28.98;47.90;97781.88;5046715;28;20103;-86
2022/08/26 10:18:20;;;;;;;8.67;6.03;;;;;;;29.09;49.42;97767.97;5047322;28;19921;-83
2022/08/26 10:21:01;;;;;;;8.77;5.82;;;;;;;29.20;47.73;97761.06;5047088;28;20045;-84
2022/08/26 10:23:41;;;;;;;10.10;7.07;;;;;;;29.19;48.10;97754.09;5041659;28;20076;-84
2022/08/26 10:26:24;;;;;;;9.52;6.63;;;;;;;29.18;48.31;97764.09;5052584;28;20428;-86
2022/08/26 10:29:26;;;;;;;8.52;6.00;;;;;;;29.45;47.78;97751.16;5041503;28;20095;-87
2022/08/26 10:32:01;;;;;;;7.47;6.10;;;;;;;29.66;47.11;97751.19;5054078;28;20453;-89
2022/08/26 10:34:32;;;;;;;8.40;5.35;;;;;;;29.78;44.78;97745.81;5071510;28;20045;-86
2022/08/26 10:37:07;;;;;;;11.85;5.90;;;;;;;29.54;43.80;97743.81;5052083;28;20504;-88
2022/08/26 10:39:53;;;;;;;8.25;5.07;;;;;;;29.77;44.78;97752.34;5038562;28;20099;-91
2022/08/26 10:43:02;;;;;;;7.38;4.80;;;;;;;29.94;42.57;97740.56;5052825;28;20045;-89
2022/08/26 10:45:45;;;;;;;11.70;5.35;;;;;;;29.76;41.62;97738.03;5051385;28;20652;-86
2022/08/26 10:48:23;;;;;;;5.30;4.38;;;;;;;30.05;42.11;97747.91;5040084;28;20072;-89
2022/08/26 10:50:50;;;;;;;8.40;5.22;;;;;;;29.87;41.19;97743.81;5032549;28;20072;-89
2022/08/26 10:54:16;;;;;;;5.72;4.60;;;;;;;30.09;42.29;97742.59;5017032;28;20099;-88
2022/08/26 10:57:17;;;;;;;7.30;4.32;;;;;;;30.31;42.34;97734.09;5048305;28;20049;-88
2022/08/26 11:03:33;;;;;;;7.30;4.68;;;;;;;30.48;40.56;97724.97;5042914;28;20095;-89
2022/08/26 11:06:20;;;;;;;6.43;4.90;;;;;;;30.43;41.81;97730.59;5020739;28;20111;-87
2022/08/26 11:08:52;;;;;;;5.95;4.53;;;;;;;30.60;41.36;97729.59;5033915;28;20049;-91
2022/08/26 11:11:44;;;;;;;10.20;5.30;;;;;;;30.57;39.99;97727.56;5081074;28;20140;-90
2022/08/26 11:14:18;;;;;;;8.35;5.25;;;;;;;30.49;39.48;97731.19;5060320;28;20095;-89
2022/08/26 11:16:58;;;;;;;6.63;4.80;;;;;;;30.35;40.34;97735.00;5066922;28;20056;-90
2022/08/26 11:19:34;;;;;;;10.43;4.70;;;;;;;30.45;40.67;97722.94;5044833;28;20485;-88
2022/08/26 11:22:36;;;;;;;8.30;4.97;;;;;;;30.42;40.19;97722.84;5062197;28;20056;-88
2022/08/26 11:25:16;;;;;;;9.90;5.03;;;;;;;30.49;40.21;97726.56;5045973;28;20041;-89
2022/08/26 11:27:47;;;;;;;4.78;3.92;;;;;;;30.81;41.24;97719.44;5068319;28;20450;-91
2022/08/26 11:30:14;;;;;;;5.07;4.32;;;;;;;30.92;39.37;97714.34;5043381;28;20517;-93
2022/08/26 11:32:56;;;;;;;10.63;4.97;;;;;;;30.90;39.29;97711.19;5049101;28;20076;-92
2022/08/26 11:35:42;;;;;;;8.38;4.40;;;;;;;31.03;38.74;97701.91;5038669;28;20037;-88
2022/08/26 11:38:28;;;;;;;7.55;4.50;;;;;;;31.28;37.56;97699.13;5051174;28;20098;-90
2022/08/26 11:41:19;;;;;;;10.77;4.75;;;;;;;31.14;37.65;97684.03;5060935;28;20049;-87
2022/08/26 11:43:51;;;;;;;7.80;4.85;;;;;;;30.87;37.62;97679.38;5059535;28;20118;-87
2022/08/26 11:46:29;;;;;;;9.45;5.40;;;;;;;30.64;37.83;97677.13;5057245;28;20040;-87
2022/08/26 11:49:06;;;;;;;10.13;5.40;;;;;;;30.37;38.35;97667.03;5069220;28;20040;-91
2022/08/26 11:51:34;;;;;;;6.57;4.78;;;;;;;30.36;38.80;97668.16;5026990;28;20073;-88
2022/08/26 11:54:18;;;;;;;5.43;4.57;;;;;;;30.34;40.34;97670.41;5051362;28;20539;-90
2022/08/26 11:57:04;;;;;;;7.18;4.50;;;;;;;30.37;39.13;97672.44;5071246;28;20415;-86
2022/08/26 11:59:40;;;;;;;7.72;4.50;;;;;;;30.21;39.88;97666.13;5053911;28;20082;-87
2022/08/26 12:02:15;;;;;;;;;;;;;;;30.53;38.63;97665.22;5052695;28;20045;-88
2022/08/26 12:04:50;;;;;;;6.57;4.13;;;;;;;30.91;38.73;97661.31;5047946;28;19929;-85
2022/08/26 12:07:24;;;;;;;5.45;3.50;;;;;;;31.30;37.93;97656.22;5051565;28;20603;-90
2022/08/26 12:09:58;;;;;;;5.63;3.70;;;;;;;31.63;37.07;97653.25;5063160;28;20068;-88
2022/08/26 12:12:37;;;;;;;7.30;5.20;;;;;;;31.70;36.42;97651.50;5059122;28;20458;-86